Time;durP1;ratioP1;P1;durP2;ratioP2;P2;SDS_P1;SDS_P2;PMS_P1;PMS_P2;Temp;Humidity;BMP_temperature;BMP_pressure;BME280_temperature;BME280_humidity;BME280_pressure;Samples;Min_cycle;Max_cycle;Signal;HPM_P1;HPM_P2
2022/01/09 00:00:30;;;;;;;1.00;1.00;;;;;;;;;;5064881;28;20681;-67
2022/01/09 00:03:17;;;;;;;1.20;1.20;;;;;;;;;;5067215;28;20575;-68
2022/01/09 00:06:04;;;;;;;1.30;1.30;;;;;;;;;;5065407;28;20742;-68
2022/01/09 00:08:51;;;;;;;1.63;1.53;;;;;;;;;;5067716;28;20684;-68
2022/01/09 00:11:39;;;;;;;1.27;1.27;;;;;;;;;;5066655;28;20340;-68
2022/01/09 00:14:26;;;;;;;1.30;1.30;;;;;;;;;;5069037;28;20283;-67
2022/01/09 00:17:13;;;;;;;1.40;1.40;;;;;;;;;;5063450;28;20260;-69
2022/01/09 00:20:00;;;;;;;1.80;1.70;;;;;;;;;;5061115;28;20298;-67
2022/01/09 00:22:49;;;;;;;1.60;1.50;;;;;;;;;;5065717;28;20318;-68
2022/01/09 00:25:36;;;;;;;1.30;1.30;;;;;;;;;;5060038;28;20211;-69
2022/01/09 00:28:24;;;;;;;1.60;1.60;;;;;;;;;;5061186;28;20251;-66
2022/01/09 00:31:11;;;;;;;1.37;1.37;;;;;;;;;;5062350;28;20574;-68
2022/01/09 00:33:58;;;;;;;1.40;1.40;;;;;;;;;;5063733;28;20260;-68
2022/01/09 00:36:45;;;;;;;1.30;1.30;;;;;;;;;;5068707;28;20668;-68
2022/01/09 00:39:32;;;;;;;1.40;1.40;;;;;;;;;;5066033;28;20702;-68
2022/01/09 00:42:19;;;;;;;1.40;1.40;;;;;;;;;;5065092;28;20255;-68
2022/01/09 00:45:09;;;;;;;1.37;1.30;;;;;;;;;;5063871;28;20218;-68
2022/01/09 00:47:56;;;;;;;1.50;1.40;;;;;;;;;;5062508;28;20679;-68
2022/01/09 00:50:43;;;;;;;1.10;1.10;;;;;;;;;;5063576;28;20229;-68
2022/01/09 00:53:30;;;;;;;1.10;1.10;;;;;;;;;;5066171;28;20361;-68
2022/01/09 00:56:17;;;;;;;1.10;1.10;;;;;;;;;;5062600;28;20290;-68
2022/01/09 00:59:04;;;;;;;1.10;1.10;;;;;;;;;;5066195;28;20636;-68
2022/01/09 01:01:53;;;;;;;1.00;1.00;;;;;;;;;;5065327;28;20246;-69
2022/01/09 01:04:40;;;;;;;1.23;0.90;;;;;;;;;;5063016;28;20318;-69
2022/01/09 01:07:28;;;;;;;1.00;1.00;;;;;;;;;;5066487;28;20207;-68
2022/01/09 01:10:15;;;;;;;0.87;0.87;;;;;;;;;;5061195;28;20762;-68
2022/01/09 01:13:02;;;;;;;0.80;0.80;;;;;;;;;;5065923;28;20244;-68
2022/01/09 01:15:49;;;;;;;0.80;0.80;;;;;;;;;;5063343;28;20693;-69
2022/01/09 01:18:37;;;;;;;0.67;0.67;;;;;;;;;;5062146;28;20293;-68
2022/01/09 01:21:24;;;;;;;0.80;0.80;;;;;;;;;;5063712;28;20241;-68
2022/01/09 01:24:11;;;;;;;0.80;0.80;;;;;;;;;;5064607;28;20633;-68
2022/01/09 01:26:58;;;;;;;0.80;0.80;;;;;;;;;;5063547;28;20269;-68
2022/01/09 01:29:45;;;;;;;0.87;0.87;;;;;;;;;;5063873;28;20234;-68
2022/01/09 01:32:32;;;;;;;0.50;0.50;;;;;;;;;;5061088;28;20308;-68
2022/01/09 01:35:20;;;;;;;0.60;0.60;;;;;;;;;;5064513;28;20205;-68
2022/01/09 01:38:07;;;;;;;0.77;0.77;;;;;;;;;;5060813;28;20261;-69
2022/01/09 01:40:54;;;;;;;0.80;0.80;;;;;;;;;;5062897;28;20259;-68
2022/01/09 01:43:41;;;;;;;0.70;0.70;;;;;;;;;;5063902;28;20251;-68
2022/01/09 01:46:28;;;;;;;0.50;0.50;;;;;;;;;;5063307;28;20212;-68
2022/01/09 01:49:15;;;;;;;0.60;0.60;;;;;;;;;;5064434;28;20287;-68
2022/01/09 01:52:04;;;;;;;0.80;0.80;;;;;;;;;;5062295;28;20734;-68
2022/01/09 01:54:51;;;;;;;0.43;0.43;;;;;;;;;;5061698;28;20209;-68
2022/01/09 01:57:39;;;;;;;0.60;0.60;;;;;;;;;;5064552;28;20284;-68
2022/01/09 02:00:26;;;;;;;0.50;0.50;;;;;;;;;;5063164;28;20329;-68
2022/01/09 02:03:13;;;;;;;0.70;0.70;;;;;;;;;;5064770;28;20208;-68
2022/01/09 02:06:00;;;;;;;0.50;0.50;;;;;;;;;;5062149;28;20310;-68
2022/01/09 02:08:48;;;;;;;0.53;0.53;;;;;;;;;;5061189;28;20244;-68
2022/01/09 02:11:35;;;;;;;0.40;0.40;;;;;;;;;;5061677;28;20199;-68
2022/01/09 02:14:22;;;;;;;0.50;0.50;;;;;;;;;;5061239;28;20422;-68
2022/01/09 02:17:09;;;;;;;1.40;0.73;;;;;;;;;;5062801;28;20207;-68
2022/01/09 02:19:58;;;;;;;0.60;0.60;;;;;;;;;;5063766;28;20227;-68
2022/01/09 02:22:45;;;;;;;0.40;0.40;;;;;;;;;;5063046;28;20265;-68
2022/01/09 02:25:32;;;;;;;0.80;0.60;;;;;;;;;;5061439;28;20571;-68
2022/01/09 02:28:19;;;;;;;0.67;0.67;;;;;;;;;;5061485;28;20247;-68
2022/01/09 02:31:07;;;;;;;0.60;0.60;;;;;;;;;;5064444;28;20297;-68
2022/01/09 02:33:54;;;;;;;0.80;0.73;;;;;;;;;;5065031;28;20779;-68
2022/01/09 02:36:42;;;;;;;0.50;0.50;;;;;;;;;;5061465;28;20264;-68
2022/01/09 02:39:29;;;;;;;0.50;0.50;;;;;;;;;;5064166;28;20609;-67
2022/01/09 02:42:20;;;;;;;0.70;0.70;;;;;;;;;;5062568;28;20622;-68
2022/01/09 02:45:08;;;;;;;0.40;0.40;;;;;;;;;;5062215;28;20216;-68
2022/01/09 02:47:57;;;;;;;0.90;0.90;;;;;;;;;;5064501;28;20723;-68
2022/01/09 02:50:56;;;;;;;0.67;0.67;;;;;;;;;;5059280;28;20200;-68
2022/01/09 02:53:48;;;;;;;0.67;0.67;;;;;;;;;;5065987;28;20246;-68
2022/01/09 02:56:35;;;;;;;0.60;0.60;;;;;;;;;;5063295;28;20203;-68
2022/01/09 02:59:22;;;;;;;0.57;0.57;;;;;;;;;;5060151;28;20539;-68
2022/01/09 03:02:09;;;;;;;0.50;0.50;;;;;;;;;;5062819;28;20293;-67
2022/01/09 03:04:56;;;;;;;0.70;0.70;;;;;;;;;;5061127;28;20423;-68
2022/01/09 03:07:44;;;;;;;0.70;0.70;;;;;;;;;;5064241;28;20259;-68
2022/01/09 03:10:32;;;;;;;0.60;0.60;;;;;;;;;;5064431;28;20235;-68
2022/01/09 03:13:19;;;;;;;0.60;0.60;;;;;;;;;;5061133;28;20755;-68
2022/01/09 03:16:06;;;;;;;1.00;0.60;;;;;;;;;;5058952;28;20575;-68
2022/01/09 03:18:53;;;;;;;0.57;0.57;;;;;;;;;;5062867;28;20749;-69
2022/01/09 03:21:40;;;;;;;0.70;0.70;;;;;;;;;;5060948;28;20242;-68
2022/01/09 03:24:27;;;;;;;0.73;0.63;;;;;;;;;;5065539;28;20207;-67
2022/01/09 03:27:15;;;;;;;0.83;0.73;;;;;;;;;;5063061;28;20269;-68
2022/01/09 03:30:02;;;;;;;0.50;0.50;;;;;;;;;;5068493;28;20235;-69
2022/01/09 03:32:51;;;;;;;1.50;0.80;;;;;;;;;;5068312;28;20246;-68
2022/01/09 03:35:39;;;;;;;0.80;0.80;;;;;;;;;;5066829;28;20682;-68
2022/01/09 03:38:26;;;;;;;0.60;0.60;;;;;;;;;;5069907;28;20753;-68
2022/01/09 03:41:13;;;;;;;0.93;0.83;;;;;;;;;;5068460;28;20308;-68
2022/01/09 03:44:01;;;;;;;0.80;0.80;;;;;;;;;;5065135;28;20212;-68
2022/01/09 03:46:48;;;;;;;0.50;0.50;;;;;;;;;;5066898;28;20343;-68
2022/01/09 03:49:35;;;;;;;0.50;0.50;;;;;;;;;;5065830;28;20295;-68
2022/01/09 03:52:26;;;;;;;0.87;0.87;;;;;;;;;;5068705;28;20203;-67
2022/01/09 03:55:14;;;;;;;0.80;0.80;;;;;;;;;;5067698;28;20227;-68
2022/01/09 03:58:01;;;;;;;0.70;0.70;;;;;;;;;;5064828;28;20586;-68
2022/01/09 04:00:49;;;;;;;0.70;0.70;;;;;;;;;;5067476;28;20777;-68
2022/01/09 04:03:37;;;;;;;0.73;0.73;;;;;;;;;;5065873;28;20235;-69
2022/01/09 04:06:24;;;;;;;0.73;0.73;;;;;;;;;;5069367;28;20842;-68
2022/01/09 04:09:18;;;;;;;0.70;0.70;;;;;;;;;;5066472;28;20235;-68
2022/01/09 04:12:14;;;;;;;0.70;0.70;;;;;;;;;;5062334;28;20203;-68
2022/01/09 04:15:04;;;;;;;1.23;0.83;;;;;;;;;;5068650;28;20578;-68
2022/01/09 04:17:54;;;;;;;1.43;1.07;;;;;;;;;;5063877;28;20257;-68
2022/01/09 04:20:41;;;;;;;1.93;0.83;;;;;;;;;;5068590;28;20227;-68
2022/01/09 04:23:28;;;;;;;0.97;0.60;;;;;;;;;;5067294;28;20294;-68
2022/01/09 04:26:16;;;;;;;0.80;0.80;;;;;;;;;;5065468;28;20298;-68
2022/01/09 04:29:04;;;;;;;1.07;0.70;;;;;;;;;;5066817;28;20209;-68
2022/01/09 04:31:51;;;;;;;0.70;0.70;;;;;;;;;;5065365;28;20279;-68
2022/01/09 04:34:39;;;;;;;1.37;0.80;;;;;;;;;;5062555;28;20296;-68
2022/01/09 04:37:26;;;;;;;0.70;0.70;;;;;;;;;;5064395;28;20298;-68
2022/01/09 04:40:15;;;;;;;0.93;0.60;;;;;;;;;;5062883;28;20241;-68
2022/01/09 04:43:05;;;;;;;0.70;0.70;;;;;;;;;;5066726;28;20709;-68
2022/01/09 04:45:52;;;;;;;1.07;0.97;;;;;;;;;;5065138;28;20341;-68
2022/01/09 04:48:39;;;;;;;0.60;0.60;;;;;;;;;;5064387;28;20222;-68
2022/01/09 04:51:27;;;;;;;1.00;0.97;;;;;;;;;;5067069;28;20561;-68
2022/01/09 04:54:14;;;;;;;0.77;0.77;;;;;;;;;;5063276;28;20215;-69
2022/01/09 04:57:02;;;;;;;0.70;0.70;;;;;;;;;;5066575;28;20206;-68
2022/01/09 04:59:49;;;;;;;1.00;0.97;;;;;;;;;;5066342;28;20216;-68
2022/01/09 05:02:37;;;;;;;0.67;0.67;;;;;;;;;;5066673;28;20242;-68
2022/01/09 05:05:25;;;;;;;0.80;0.80;;;;;;;;;;5064550;28;20223;-68
2022/01/09 05:08:13;;;;;;;0.60;0.60;;;;;;;;;;5061459;28;20265;-69
2022/01/09 05:11:00;;;;;;;0.67;0.67;;;;;;;;;;5062571;28;20671;-69
2022/01/09 05:13:47;;;;;;;0.70;0.70;;;;;;;;;;5065321;28;20291;-68
2022/01/09 05:16:34;;;;;;;0.60;0.60;;;;;;;;;;5065577;28;20272;-68
2022/01/09 05:19:28;;;;;;;0.60;0.60;;;;;;;;;;5064115;28;20285;-68
2022/01/09 05:22:15;;;;;;;0.80;0.80;;;;;;;;;;5062309;28;20216;-68
2022/01/09 05:25:06;;;;;;;1.33;1.00;;;;;;;;;;5064977;28;20215;-68
2022/01/09 05:27:53;;;;;;;0.70;0.70;;;;;;;;;;5066329;28;20253;-68
2022/01/09 05:30:40;;;;;;;0.73;0.73;;;;;;;;;;5063604;28;20293;-67
2022/01/09 05:33:27;;;;;;;0.60;0.60;;;;;;;;;;5066387;28;20285;-68
2022/01/09 05:36:14;;;;;;;0.70;0.60;;;;;;;;;;5065534;28;20290;-68
2022/01/09 05:39:01;;;;;;;0.60;0.60;;;;;;;;;;5060151;28;20261;-68
2022/01/09 05:41:50;;;;;;;1.00;0.70;;;;;;;;;;5062539;28;20345;-68
2022/01/09 05:44:37;;;;;;;1.03;0.80;;;;;;;;;;5064326;28;20286;-68
2022/01/09 05:47:23;;;;;;;0.50;0.50;;;;;;;;;;5062364;28;20763;-68
2022/01/09 05:50:11;;;;;;;1.20;0.87;;;;;;;;;;5065055;28;20335;-68
2022/01/09 05:52:57;;;;;;;0.80;0.80;;;;;;;;;;5062897;28;20293;-68
2022/01/09 05:55:44;;;;;;;0.60;0.60;;;;;;;;;;5061751;28;20314;-68
2022/01/09 05:58:34;;;;;;;0.50;0.50;;;;;;;;;;5063525;28;20231;-68
2022/01/09 06:01:21;;;;;;;0.67;0.67;;;;;;;;;;5061051;28;20225;-69
2022/01/09 06:04:08;;;;;;;0.97;0.73;;;;;;;;;;5066160;28;20228;-68
2022/01/09 06:06:55;;;;;;;0.63;0.63;;;;;;;;;;5063585;28;20812;-68
2022/01/09 06:09:42;;;;;;;0.80;0.80;;;;;;;;;;5062543;28;20242;-68
2022/01/09 06:12:29;;;;;;;0.70;0.70;;;;;;;;;;5064003;28;20260;-68
2022/01/09 06:15:17;;;;;;;0.73;0.67;;;;;;;;;;5063219;28;21200;-68
2022/01/09 06:18:05;;;;;;;0.77;0.77;;;;;;;;;;5063457;28;20212;-68
2022/01/09 06:20:52;;;;;;;0.60;0.60;;;;;;;;;;5060752;28;20227;-68
2022/01/09 06:23:39;;;;;;;0.90;0.80;;;;;;;;;;5060775;28;20334;-68
2022/01/09 06:26:26;;;;;;;0.77;0.77;;;;;;;;;;5064337;28;20719;-68
2022/01/09 06:29:13;;;;;;;1.07;0.80;;;;;;;;;;5063040;28;20282;-68
2022/01/09 06:32:01;;;;;;;1.13;0.70;;;;;;;;;;5065330;28;20452;-69
2022/01/09 06:34:48;;;;;;;0.80;0.70;;;;;;;;;;5060149;28;20246;-68
2022/01/09 06:37:35;;;;;;;0.57;0.57;;;;;;;;;;5062753;28;20207;-68
2022/01/09 06:40:22;;;;;;;0.63;0.63;;;;;;;;;;5063567;28;20757;-68
2022/01/09 06:43:09;;;;;;;0.83;0.83;;;;;;;;;;5062270;28;20235;-68
2022/01/09 06:45:56;;;;;;;0.83;0.83;;;;;;;;;;5061850;28;20320;-68
2022/01/09 06:48:44;;;;;;;0.87;0.83;;;;;;;;;;5064769;28;20253;-68
2022/01/09 06:51:31;;;;;;;0.73;0.73;;;;;;;;;;5059196;28;20291;-68
2022/01/09 06:54:18;;;;;;;0.80;0.80;;;;;;;;;;5064681;28;20218;-68
2022/01/09 06:57:05;;;;;;;0.73;0.70;;;;;;;;;;5058638;28;20341;-68
2022/01/09 06:59:52;;;;;;;1.33;0.83;;;;;;;;;;5062674;28;20731;-68
2022/01/09 07:02:39;;;;;;;1.20;0.90;;;;;;;;;;5061769;28;20581;-68
2022/01/09 07:05:28;;;;;;;0.93;0.93;;;;;;;;;;5060899;28;20223;-68
2022/01/09 07:08:14;;;;;;;0.90;0.90;;;;;;;;;;5063039;28;20675;-68
2022/01/09 07:11:02;;;;;;;0.70;0.70;;;;;;;;;;5061099;28;20234;-68
2022/01/09 07:13:49;;;;;;;1.20;1.10;;;;;;;;;;5065042;28;20689;-68
2022/01/09 07:16:36;;;;;;;1.00;0.90;;;;;;;;;;5063466;28;20290;-67
2022/01/09 07:19:23;;;;;;;0.80;0.80;;;;;;;;;;5064178;28;20596;-68
2022/01/09 07:22:11;;;;;;;1.57;1.10;;;;;;;;;;5061872;28;20311;-68
2022/01/09 07:24:58;;;;;;;1.10;1.00;;;;;;;;;;5063156;28;20293;-68
2022/01/09 07:27:45;;;;;;;0.90;0.90;;;;;;;;;;5061172;28;20289;-68
2022/01/09 07:30:32;;;;;;;0.80;0.80;;;;;;;;;;5063045;28;20214;-68
2022/01/09 07:33:19;;;;;;;0.73;0.73;;;;;;;;;;5063442;28;20281;-68
2022/01/09 07:36:06;;;;;;;1.33;0.70;;;;;;;;;;5062467;28;20213;-69
2022/01/09 07:38:54;;;;;;;1.10;1.10;;;;;;;;;;5062991;28;20285;-68
2022/01/09 07:41:45;;;;;;;0.87;0.87;;;;;;;;;;5059207;28;20320;-68
2022/01/09 07:44:32;;;;;;;0.73;0.73;;;;;;;;;;5063500;28;20289;-68
2022/01/09 07:47:18;;;;;;;1.43;0.90;;;;;;;;;;5060901;28;20273;-68
2022/01/09 07:50:09;;;;;;;1.00;1.00;;;;;;;;;;5063945;28;20253;-68
2022/01/09 07:52:56;;;;;;;1.43;1.00;;;;;;;;;;5061670;28;21028;-68
2022/01/09 07:55:45;;;;;;;1.07;0.80;;;;;;;;;;5066486;28;20253;-68
2022/01/09 07:58:32;;;;;;;0.80;0.80;;;;;;;;;;5059862;28;20611;-68
2022/01/09 08:01:18;;;;;;;0.70;0.70;;;;;;;;;;5063045;28;20309;-68
2022/01/09 08:04:05;;;;;;;1.50;1.00;;;;;;;;;;5061578;28;20310;-68
2022/01/09 08:06:52;;;;;;;1.00;0.90;;;;;;;;;;5063695;28;20239;-68
2022/01/09 08:09:41;;;;;;;0.90;0.90;;;;;;;;;;5063083;28;20704;-69
2022/01/09 08:12:29;;;;;;;0.70;0.70;;;;;;;;;;5060272;28;20570;-68
2022/01/09 08:15:16;;;;;;;1.00;0.97;;;;;;;;;;5063302;28;20617;-68
2022/01/09 08:18:03;;;;;;;1.10;1.00;;;;;;;;;;5064242;28;20230;-68
2022/01/09 08:20:50;;;;;;;0.90;0.83;;;;;;;;;;5066210;28;20223;-68
2022/01/09 08:23:37;;;;;;;1.33;1.00;;;;;;;;;;5064840;28;20256;-68
2022/01/09 08:26:24;;;;;;;0.80;0.80;;;;;;;;;;5068836;28;20300;-68
2022/01/09 08:29:14;;;;;;;0.80;0.80;;;;;;;;;;5063132;28;20284;-68
2022/01/09 08:32:01;;;;;;;0.73;0.73;;;;;;;;;;5065009;28;20691;-68
2022/01/09 08:34:48;;;;;;;0.90;0.90;;;;;;;;;;5065306;28;20246;-67
2022/01/09 08:37:36;;;;;;;1.30;1.10;;;;;;;;;;5063324;28;20203;-68
2022/01/09 08:40:23;;;;;;;1.27;1.10;;;;;;;;;;5067053;28;21011;-68
2022/01/09 08:43:10;;;;;;;1.13;1.03;;;;;;;;;;5062822;28;20208;-68
2022/01/09 08:45:59;;;;;;;0.70;0.70;;;;;;;;;;5064933;28;20235;-68
2022/01/09 08:48:46;;;;;;;1.10;1.00;;;;;;;;;;5067086;28;20296;-68
2022/01/09 08:51:33;;;;;;;1.20;1.10;;;;;;;;;;5064688;28;20240;-68
2022/01/09 08:54:20;;;;;;;0.97;0.93;;;;;;;;;;5061588;28;20211;-68
2022/01/09 08:57:07;;;;;;;0.90;0.90;;;;;;;;;;5063779;28;20215;-68
2022/01/09 08:59:54;;;;;;;1.47;0.90;;;;;;;;;;5064314;28;20208;-68
2022/01/09 09:02:43;;;;;;;0.80;0.80;;;;;;;;;;5065718;28;20304;-67
2022/01/09 09:05:30;;;;;;;1.20;1.10;;;;;;;;;;5065211;28;20780;-68
2022/01/09 09:08:17;;;;;;;0.93;0.93;;;;;;;;;;5066058;28;20352;-68
2022/01/09 09:11:04;;;;;;;1.17;1.07;;;;;;;;;;5067064;28;20655;-68
2022/01/09 09:13:51;;;;;;;0.70;0.70;;;;;;;;;;5065818;28;20288;-68
2022/01/09 09:16:38;;;;;;;1.10;1.10;;;;;;;;;;5065639;28;20356;-68
2022/01/09 09:19:26;;;;;;;0.77;0.77;;;;;;;;;;5065136;28;20261;-68
2022/01/09 09:22:13;;;;;;;0.77;0.77;;;;;;;;;;5067119;28;20321;-68
2022/01/09 09:25:00;;;;;;;0.83;0.83;;;;;;;;;;5067596;28;20286;-68
2022/01/09 09:27:47;;;;;;;1.13;1.13;;;;;;;;;;5061050;28;20750;-68
2022/01/09 09:30:34;;;;;;;1.23;0.97;;;;;;;;;;5064201;28;20343;-68
2022/01/09 09:33:20;;;;;;;1.07;1.00;;;;;;;;;;5063674;28;20231;-68
2022/01/09 09:36:09;;;;;;;1.10;1.00;;;;;;;;;;5065826;28;20264;-68
2022/01/09 09:38:56;;;;;;;1.10;1.00;;;;;;;;;;5066874;28;20215;-68
2022/01/09 09:41:43;;;;;;;1.07;1.07;;;;;;;;;;5063676;28;20698;-68
2022/01/09 09:44:30;;;;;;;1.20;1.10;;;;;;;;;;5065096;28;20364;-68
2022/01/09 09:47:19;;;;;;;1.37;1.27;;;;;;;;;;5063552;28;20326;-68
2022/01/09 09:50:08;;;;;;;1.20;1.10;;;;;;;;;;5067354;28;20208;-67
2022/01/09 09:52:58;;;;;;;1.07;0.97;;;;;;;;;;5064984;28;20208;-68
2022/01/09 09:55:48;;;;;;;1.10;1.00;;;;;;;;;;5062233;28;20272;-68
2022/01/09 09:58:39;;;;;;;1.00;1.00;;;;;;;;;;5065033;28;20207;-68
2022/01/09 10:01:29;;;;;;;1.50;1.13;;;;;;;;;;5064405;28;20261;-68
2022/01/09 10:04:16;;;;;;;0.90;0.90;;;;;;;;;;5066254;28;20301;-68
2022/01/09 10:07:03;;;;;;;1.17;1.10;;;;;;;;;;5066382;28;20199;-68
2022/01/09 10:09:54;;;;;;;1.13;1.00;;;;;;;;;;5064689;28;20324;-69
2022/01/09 10:12:42;;;;;;;1.20;1.10;;;;;;;;;;5061543;28;20257;-68
2022/01/09 10:15:29;;;;;;;1.20;1.10;;;;;;;;;;5066205;28;20256;-68
2022/01/09 10:18:38;;;;;;;1.40;1.30;;;;;;;;;;5063357;28;20255;-68
2022/01/09 10:21:25;;;;;;;1.10;0.83;;;;;;;;;;5062781;28;20350;-68
2022/01/09 10:24:12;;;;;;;1.80;1.27;;;;;;;;;;5063893;28;20218;-68
2022/01/09 10:27:01;;;;;;;1.33;1.23;;;;;;;;;;5062925;28;20239;-68
2022/01/09 10:29:50;;;;;;;1.43;1.33;;;;;;;;;;5064788;28;20623;-68
2022/01/09 10:32:37;;;;;;;1.23;1.10;;;;;;;;;;5062310;28;20672;-68
2022/01/09 10:35:25;;;;;;;1.00;1.00;;;;;;;;;;5058858;28;20282;-67
2022/01/09 10:38:16;;;;;;;1.43;1.30;;;;;;;;;;5063240;28;20296;-68
2022/01/09 10:41:04;;;;;;;1.50;1.40;;;;;;;;;;5062629;28;20384;-69
2022/01/09 10:43:53;;;;;;;1.10;1.00;;;;;;;;;;5062608;28;20314;-68
2022/01/09 10:46:40;;;;;;;1.07;1.00;;;;;;;;;;5063699;28;20260;-69
2022/01/09 10:49:37;;;;;;;1.50;1.40;;;;;;;;;;5064374;28;20218;-67
2022/01/09 10:52:28;;;;;;;1.30;1.20;;;;;;;;;;5063033;28;20570;-67
2022/01/09 10:55:14;;;;;;;1.43;1.33;;;;;;;;;;5064073;28;20587;-67
2022/01/09 10:58:01;;;;;;;1.30;1.10;;;;;;;;;;5060231;28;20697;-69
2022/01/09 11:01:08;;;;;;;1.93;1.33;;;;;;;;;;5058862;28;20753;-68
2022/01/09 11:03:58;;;;;;;0.87;0.83;;;;;;;;;;5064637;28;20287;-68
2022/01/09 11:06:45;;;;;;;1.20;1.20;;;;;;;;;;5065050;28;20708;-67
2022/01/09 11:09:33;;;;;;;1.40;1.30;;;;;;;;;;4891658;28;20595;-69
2022/01/09 11:12:22;;;;;;;1.10;1.10;;;;;;;;;;4889979;28;20719;-69
2022/01/09 11:15:12;;;;;;;1.43;1.33;;;;;;;;;;4886826;28;20265;-69
2022/01/09 11:18:01;;;;;;;1.33;1.23;;;;;;;;;;4888763;28;20636;-70
2022/01/09 11:20:48;;;;;;;0.90;0.90;;;;;;;;;;5051648;28;20204;-68
2022/01/09 11:23:50;;;;;;;1.23;1.20;;;;;;;;;;5063861;28;20238;-68
2022/01/09 11:26:47;;;;;;;1.63;1.37;;;;;;;;;;5061864;28;20279;-68
2022/01/09 11:29:42;;;;;;;1.60;1.50;;;;;;;;;;5061219;28;20561;-68
2022/01/09 11:32:41;;;;;;;1.60;1.50;;;;;;;;;;5063336;28;20264;-68
2022/01/09 11:35:39;;;;;;;1.33;1.27;;;;;;;;;;5059788;28;20207;-68
2022/01/09 11:38:30;;;;;;;1.53;1.43;;;;;;;;;;5056732;28;21072;-68
2022/01/09 11:41:20;;;;;;;1.27;1.17;;;;;;;;;;5061365;28;20332;-68
2022/01/09 11:44:09;;;;;;;1.67;1.57;;;;;;;;;;5061331;28;20235;-68
2022/01/09 11:46:59;;;;;;;1.57;1.47;;;;;;;;;;5060105;28;20253;-68
2022/01/09 11:50:07;;;;;;;1.50;1.40;;;;;;;;;;5059134;28;20247;-68
2022/01/09 11:52:59;;;;;;;1.10;1.00;;;;;;;;;;5065554;28;20256;-68
2022/01/09 11:55:48;;;;;;;1.10;1.10;;;;;;;;;;5066606;28;20208;-68
2022/01/09 11:58:40;;;;;;;1.37;1.27;;;;;;;;;;5066620;28;20214;-68
2022/01/09 12:01:35;;;;;;;1.50;1.40;;;;;;;;;;5062081;28;20669;-68
2022/01/09 12:04:54;;;;;;;2.83;1.23;;;;;;;;;;5065560;28;20307;-68
2022/01/09 12:08:08;;;;;;;1.57;1.43;;;;;;;;;;5064373;28;20204;-65
2022/01/09 12:10:56;;;;;;;1.90;1.80;;;;;;;;;;5063796;28;20212;-68
2022/01/09 12:13:43;;;;;;;1.70;1.50;;;;;;;;;;5066290;28;20244;-68
2022/01/09 12:16:51;;;;;;;1.70;1.60;;;;;;;;;;5063533;28;20257;-69
2022/01/09 12:20:03;;;;;;;1.53;1.43;;;;;;;;;;5066318;28;20765;-67
2022/01/09 12:22:53;;;;;;;1.50;1.40;;;;;;;;;;5063537;28;20232;-68
2022/01/09 12:25:50;;;;;;;1.73;1.63;;;;;;;;;;5064575;28;20208;-68
2022/01/09 12:28:44;;;;;;;1.40;1.30;;;;;;;;;;5065367;28;20211;-68
2022/01/09 12:31:31;;;;;;;1.60;1.50;;;;;;;;;;5065252;28;20204;-67
2022/01/09 12:34:18;;;;;;;1.60;1.50;;;;;;;;;;5063052;28;20239;-69
2022/01/09 12:37:05;;;;;;;1.53;1.40;;;;;;;;;;5062957;28;20710;-68
2022/01/09 12:39:52;;;;;;;2.67;1.70;;;;;;;;;;5067096;28;20352;-68
2022/01/09 12:42:46;;;;;;;1.40;1.30;;;;;;;;;;5063359;28;20224;-68
2022/01/09 12:45:37;;;;;;;1.40;1.30;;;;;;;;;;5065190;28;20269;-68
2022/01/09 12:48:27;;;;;;;1.40;1.30;;;;;;;;;;5065305;28;20204;-68
2022/01/09 12:51:15;;;;;;;1.40;1.30;;;;;;;;;;5065938;28;20224;-68
2022/01/09 12:54:06;;;;;;;1.40;1.23;;;;;;;;;;5060034;28;20311;-69
2022/01/09 12:56:52;;;;;;;1.47;1.43;;;;;;;;;;5066507;28;20213;-69
2022/01/09 12:59:41;;;;;;;1.07;1.03;;;;;;;;;;5064676;28;20294;-68
2022/01/09 13:02:28;;;;;;;1.53;1.43;;;;;;;;;;5063784;28;20266;-68
2022/01/09 13:05:15;;;;;;;1.47;1.37;;;;;;;;;;5063565;28;20542;-68
2022/01/09 13:08:02;;;;;;;1.03;1.03;;;;;;;;;;5066118;28;20959;-67
2022/01/09 13:10:57;;;;;;;1.43;1.33;;;;;;;;;;5066951;28;20312;-68
2022/01/09 13:13:47;;;;;;;1.10;1.10;;;;;;;;;;5061523;28;20212;-69
2022/01/09 13:16:36;;;;;;;1.10;1.10;;;;;;;;;;5064767;28;20673;-68
2022/01/09 13:19:23;;;;;;;2.17;1.60;;;;;;;;;;5058067;28;20215;-68
2022/01/09 13:22:17;;;;;;;1.57;1.47;;;;;;;;;;5066218;28;20243;-68
2022/01/09 13:25:08;;;;;;;1.20;1.13;;;;;;;;;;5065883;28;20239;-68
2022/01/09 13:27:55;;;;;;;1.23;1.23;;;;;;;;;;5062456;28;20604;-68
2022/01/09 13:30:41;;;;;;;1.10;1.10;;;;;;;;;;5065375;28;20230;-69
2022/01/09 13:33:30;;;;;;;1.40;1.30;;;;;;;;;;5061179;28;20344;-68
2022/01/09 13:36:34;;;;;;;1.00;1.00;;;;;;;;;;5064936;28;20335;-68
2022/01/09 13:39:24;;;;;;;1.50;1.10;;;;;;;;;;5065008;28;20412;-68
2022/01/09 13:42:12;;;;;;;1.00;1.00;;;;;;;;;;5065972;28;20681;-69
2022/01/09 13:45:06;;;;;;;1.23;1.23;;;;;;;;;;5067485;28;20699;-68
2022/01/09 13:47:57;;;;;;;1.50;1.23;;;;;;;;;;5061932;28;20233;-68
2022/01/09 13:50:46;;;;;;;1.10;1.10;;;;;;;;;;5060808;28;20211;-67
2022/01/09 13:53:33;;;;;;;0.93;0.87;;;;;;;;;;5066015;28;20810;-67
2022/01/09 13:56:20;;;;;;;1.20;1.20;;;;;;;;;;5062671;28;20298;-68
2022/01/09 13:59:07;;;;;;;1.40;1.30;;;;;;;;;;5063787;28;20676;-68
2022/01/09 14:01:54;;;;;;;1.57;1.47;;;;;;;;;;5063591;28;20294;-68
2022/01/09 14:04:42;;;;;;;1.40;1.30;;;;;;;;;;5064980;28;20237;-68
2022/01/09 14:07:31;;;;;;;1.43;1.37;;;;;;;;;;5064549;28;20248;-68
2022/01/09 14:10:20;;;;;;;1.40;1.30;;;;;;;;;;5060269;28;20246;-68
2022/01/09 14:13:13;;;;;;;1.40;1.30;;;;;;;;;;5063514;28;20584;-68
2022/01/09 14:16:09;;;;;;;1.20;1.20;;;;;;;;;;5060833;28;21179;-68
2022/01/09 14:18:56;;;;;;;1.20;1.20;;;;;;;;;;5061856;28;20213;-68
2022/01/09 14:21:52;;;;;;;1.50;1.50;;;;;;;;;;5062986;28;20684;-68
2022/01/09 14:25:05;;;;;;;1.43;1.33;;;;;;;;;;5062620;28;20591;-68
2022/01/09 14:27:54;;;;;;;1.60;1.50;;;;;;;;;;5065739;28;20211;-67
2022/01/09 14:30:42;;;;;;;1.50;1.40;;;;;;;;;;5062409;28;20303;-69
2022/01/09 14:33:29;;;;;;;1.50;1.43;;;;;;;;;;5061624;28;20302;-68
2022/01/09 14:36:19;;;;;;;1.50;1.40;;;;;;;;;;5062319;28;20207;-68
2022/01/09 14:39:10;;;;;;;1.60;1.50;;;;;;;;;;5064302;28;20227;-68
2022/01/09 14:42:00;;;;;;;1.60;1.50;;;;;;;;;;5062579;28;20308;-69
2022/01/09 14:44:47;;;;;;;1.80;1.70;;;;;;;;;;5060716;28;20243;-68
2022/01/09 14:47:34;;;;;;;1.80;1.70;;;;;;;;;;5059885;28;20403;-68
2022/01/09 14:50:22;;;;;;;1.33;1.33;;;;;;;;;;5064832;28;20199;-67
2022/01/09 14:53:09;;;;;;;1.37;1.37;;;;;;;;;;5058733;28;20207;-68
2022/01/09 14:55:58;;;;;;;1.53;1.43;;;;;;;;;;5060047;28;20294;-68
2022/01/09 14:58:46;;;;;;;1.57;1.47;;;;;;;;;;5062926;28;20576;-68
2022/01/09 15:01:33;;;;;;;1.40;1.30;;;;;;;;;;5062340;28;20282;-68
2022/01/09 15:04:20;;;;;;;1.53;1.43;;;;;;;;;;5059756;28;20233;-68
2022/01/09 15:07:07;;;;;;;1.20;1.20;;;;;;;;;;5063330;28;20297;-67
2022/01/09 15:09:54;;;;;;;1.40;1.30;;;;;;;;;;5063101;28;20262;-67
2022/01/09 15:12:41;;;;;;;1.50;1.40;;;;;;;;;;5061957;28;20293;-67
2022/01/09 15:15:30;;;;;;;1.23;1.23;;;;;;;;;;5061230;28;20217;-68
2022/01/09 15:18:17;;;;;;;1.53;1.43;;;;;;;;;;5062540;28;20579;-68
2022/01/09 15:21:04;;;;;;;1.20;1.20;;;;;;;;;;5063413;28;20567;-67
2022/01/09 15:23:51;;;;;;;1.40;1.30;;;;;;;;;;5062379;28;20289;-67
2022/01/09 15:26:38;;;;;;;1.77;1.67;;;;;;;;;;5066579;28;20223;-68
2022/01/09 15:29:25;;;;;;;1.20;1.20;;;;;;;;;;5064536;28;20265;-68
2022/01/09 15:32:13;;;;;;;1.40;1.40;;;;;;;;;;5067452;28;20212;-68
2022/01/09 15:35:03;;;;;;;2.07;1.30;;;;;;;;;;5062476;28;20667;-67
2022/01/09 15:37:51;;;;;;;1.83;1.73;;;;;;;;;;5068197;28;20207;-68
2022/01/09 15:40:38;;;;;;;1.37;1.33;;;;;;;;;;5068521;28;20205;-67
2022/01/09 15:43:25;;;;;;;1.20;1.20;;;;;;;;;;5063858;28;20235;-68
2022/01/09 15:46:12;;;;;;;1.87;1.77;;;;;;;;;;5067611;28;20744;-68
2022/01/09 15:49:00;;;;;;;1.33;1.17;;;;;;;;;;5064524;28;20735;-68
2022/01/09 15:51:48;;;;;;;1.50;1.40;;;;;;;;;;5066211;28;20203;-68
2022/01/09 15:54:35;;;;;;;1.37;1.33;;;;;;;;;;5065771;28;20290;-67
2022/01/09 15:57:22;;;;;;;1.40;1.40;;;;;;;;;;5067281;28;20201;-68
2022/01/09 16:00:10;;;;;;;1.17;1.17;;;;;;;;;;5068030;28;20689;-68
2022/01/09 16:02:57;;;;;;;1.50;1.40;;;;;;;;;;5064544;28;20208;-68
2022/01/09 16:05:46;;;;;;;1.33;1.33;;;;;;;;;;5067762;28;20318;-69
2022/01/09 16:08:33;;;;;;;1.63;1.53;;;;;;;;;;5065082;28;20388;-67
2022/01/09 16:11:20;;;;;;;1.60;1.50;;;;;;;;;;5064195;28;20715;-68
2022/01/09 16:14:07;;;;;;;1.30;1.30;;;;;;;;;;5066908;28;20872;-68
2022/01/09 16:16:54;;;;;;;1.67;1.57;;;;;;;;;;5064100;28;20285;-68
2022/01/09 16:19:41;;;;;;;1.40;1.30;;;;;;;;;;5066285;28;20230;-68
2022/01/09 16:22:30;;;;;;;1.40;1.40;;;;;;;;;;5066199;28;20337;-67
2022/01/09 16:25:17;;;;;;;1.30;1.30;;;;;;;;;;5067553;28;20716;-67
2022/01/09 16:28:04;;;;;;;1.10;1.10;;;;;;;;;;5065492;28;20302;-68
2022/01/09 16:30:51;;;;;;;1.27;1.20;;;;;;;;;;5065350;28;20284;-68
2022/01/09 16:33:38;;;;;;;1.30;1.20;;;;;;;;;;5065545;28;20349;-68
2022/01/09 16:36:26;;;;;;;1.50;1.40;;;;;;;;;;5061745;28;21412;-68
2022/01/09 16:39:14;;;;;;;1.37;1.27;;;;;;;;;;5064000;28;20291;-67
2022/01/09 16:42:01;;;;;;;1.40;1.37;;;;;;;;;;5064106;28;20208;-67
2022/01/09 16:44:48;;;;;;;1.33;1.30;;;;;;;;;;5064227;28;20718;-68
2022/01/09 16:47:35;;;;;;;1.43;1.33;;;;;;;;;;5065515;28;20243;-68
2022/01/09 16:50:22;;;;;;;1.40;1.40;;;;;;;;;;5065136;28;20268;-67